Time;durP1;ratioP1;P1;durP2;ratioP2;P2;SDS_P1;SDS_P2;PMS_P1;PMS_P2;Temp;Humidity;BMP_temperature;BMP_pressure;BME280_temperature;BME280_humidity;BME280_pressure;Samples;Min_cycle;Max_cycle;Signal;HPM_P1;HPM_P2
2023/09/25 00:01:00;;;;;;;3.60;3.30;;;16.10;99.90;;;;;;5010699;28;20464;-67
2023/09/25 00:03:26;;;;;;;3.87;3.50;;;16.10;99.90;;;;;;5011596;28;20484;-70
2023/09/25 00:05:51;;;;;;;4.03;3.60;;;16.10;99.90;;;;;;5012637;28;20410;-69
2023/09/25 00:08:17;;;;;;;3.33;3.10;;;16.20;99.90;;;;;;5013857;28;20193;-70
2023/09/25 00:10:43;;;;;;;4.37;4.17;;;16.20;99.90;;;;;;5012658;28;20250;-69
2023/09/25 00:13:08;;;;;;;3.27;3.07;;;16.40;99.90;;;;;;5012931;28;20229;-70
2023/09/25 00:15:34;;;;;;;3.50;3.30;;;16.40;99.90;;;;;;5012736;28;20209;-70
2023/09/25 00:18:00;;;;;;;3.67;3.37;;;16.50;99.90;;;;;;5012255;28;20544;-70
2023/09/25 00:20:26;;;;;;;3.30;3.10;;;16.60;99.90;;;;;;5013932;28;20171;-70
2023/09/25 00:22:52;;;;;;;3.57;3.00;;;16.60;99.90;;;;;;5011990;28;20181;-69
2023/09/25 00:25:23;;;;;;;3.00;2.90;;;16.70;99.90;;;;;;5012958;28;20629;-70
2023/09/25 00:27:48;;;;;;;3.60;3.30;;;16.70;99.90;;;;;;5013954;28;20394;-70
2023/09/25 00:30:14;;;;;;;3.00;2.90;;;16.80;99.90;;;;;;5012227;28;20456;-70
2023/09/25 00:32:40;;;;;;;2.80;2.70;;;16.80;99.90;;;;;;5012534;28;20524;-71
2023/09/25 00:35:09;;;;;;;2.93;2.83;;;16.70;99.90;;;;;;5012422;28;20178;-70
2023/09/25 00:37:35;;;;;;;2.90;2.80;;;16.60;99.90;;;;;;5013663;28;20503;-70
2023/09/25 00:40:07;;;;;;;3.00;2.80;;;16.70;99.90;;;;;;5011945;28;20434;-70
2023/09/25 00:42:33;;;;;;;3.13;2.93;;;16.70;99.90;;;;;;5012431;28;20430;-70
2023/09/25 00:44:59;;;;;;;2.80;2.70;;;16.80;99.90;;;;;;5013047;28;20409;-69
2023/09/25 00:47:24;;;;;;;3.10;2.83;;;16.90;99.90;;;;;;5012420;28;20697;-70
2023/09/25 00:49:50;;;;;;;3.27;3.00;;;16.90;99.90;;;;;;5012665;28;20178;-70
2023/09/25 00:52:16;;;;;;;3.23;3.00;;;16.80;99.90;;;;;;5012558;28;20592;-70
2023/09/25 00:54:42;;;;;;;2.90;2.73;;;16.80;99.90;;;;;;5012435;28;20193;-69
2023/09/25 00:57:10;;;;;;;3.50;3.30;;;16.90;99.90;;;;;;5011436;28;20513;-70
2023/09/25 00:59:39;;;;;;;5.43;2.83;;;17.00;99.90;;;;;;5011917;28;20398;-70
2023/09/25 01:02:05;;;;;;;3.00;2.90;;;16.90;99.90;;;;;;5010091;28;20853;-70
2023/09/25 01:04:31;;;;;;;3.13;3.03;;;16.90;99.90;;;;;;5012459;28;20422;-71
2023/09/25 01:06:57;;;;;;;2.63;2.53;;;17.00;99.90;;;;;;5012278;28;20179;-71
2023/09/25 01:09:22;;;;;;;3.07;2.97;;;17.10;99.90;;;;;;5012391;28;20775;-71
2023/09/25 01:11:48;;;;;;;3.00;2.80;;;17.20;99.90;;;;;;5011873;28;20202;-71
2023/09/25 01:14:14;;;;;;;3.33;3.13;;;17.20;99.90;;;;;;5012190;28;20611;-71
2023/09/25 01:16:41;;;;;;;3.17;2.87;;;17.30;99.90;;;;;;5012289;28;20615;-71
2023/09/25 01:19:07;;;;;;;2.30;2.20;;;17.20;99.90;;;;;;5011562;28;20209;-71
2023/09/25 01:21:36;;;;;;;3.13;3.03;;;17.20;99.90;;;;;;5012991;28;20414;-70
2023/09/25 01:24:02;;;;;;;2.60;2.50;;;17.20;99.90;;;;;;5011306;28;20432;-70
2023/09/25 01:26:28;;;;;;;2.50;2.40;;;17.20;99.90;;;;;;5012299;28;20432;-71
2023/09/25 01:28:54;;;;;;;2.73;2.57;;;17.30;99.90;;;;;;5012646;28;20902;-71
2023/09/25 01:31:21;;;;;;;2.80;2.70;;;17.30;99.90;;;;;;5011915;28;20417;-71
2023/09/25 01:33:46;;;;;;;3.00;2.80;;;17.20;99.90;;;;;;5011735;28;20776;-70
2023/09/25 01:36:12;;;;;;;2.90;2.80;;;17.20;99.90;;;;;;5012030;28;20456;-71
2023/09/25 01:38:38;;;;;;;3.33;3.13;;;17.30;99.90;;;;;;5011880;28;20261;-71
2023/09/25 01:41:04;;;;;;;3.00;2.90;;;17.30;99.90;;;;;;5012045;28;20398;-71
2023/09/25 01:43:30;;;;;;;4.00;3.03;;;17.40;99.90;;;;;;5011933;28;20186;-71
2023/09/25 01:45:56;;;;;;;2.60;2.50;;;17.30;99.70;;;;;;5011583;28;20205;-62
2023/09/25 01:48:21;;;;;;;3.10;2.87;;;17.10;99.70;;;;;;5011439;28;20178;-70
2023/09/25 01:50:48;;;;;;;3.17;2.63;;;17.10;99.90;;;;;;5012240;28;20171;-71
2023/09/25 01:53:13;;;;;;;3.03;2.83;;;17.20;99.90;;;;;;5009615;28;20967;-71
2023/09/25 01:55:40;;;;;;;3.07;2.90;;;17.30;99.90;;;;;;5010952;28;20186;-71
2023/09/25 01:58:06;;;;;;;2.93;2.80;;;17.30;99.90;;;;;;5011669;28;20538;-71
2023/09/25 02:00:32;;;;;;;2.80;2.70;;;17.30;99.90;;;;;;5011477;28;20430;-71
2023/09/25 02:02:58;;;;;;;3.03;2.83;;;17.40;99.90;;;;;;5011083;28;20759;-69
2023/09/25 02:05:24;;;;;;;2.80;2.70;;;17.40;99.90;;;;;;5011616;28;20271;-71
2023/09/25 02:07:50;;;;;;;3.13;2.80;;;17.50;99.90;;;;;;5012614;28;20213;-71
2023/09/25 02:10:15;;;;;;;2.63;2.53;;;17.50;99.90;;;;;;5012008;28;20171;-71
2023/09/25 02:12:41;;;;;;;4.30;3.90;;;17.50;99.90;;;;;;5014835;28;20276;-67
2023/09/25 02:15:08;;;;;;;2.83;2.63;;;17.40;99.90;;;;;;5014596;28;20625;-71
2023/09/25 02:17:34;;;;;;;2.67;2.57;;;17.40;99.90;;;;;;5002711;28;20198;-70
2023/09/25 02:22:36;;;;;;;3.17;2.97;;;17.30;99.90;;;;;;5016369;28;20402;-70
2023/09/25 02:25:02;;;;;;;2.50;2.40;;;17.20;99.90;;;;;;5014331;28;20432;-70
2023/09/25 02:27:28;;;;;;;2.83;2.63;;;17.20;99.90;;;;;;5015208;28;20515;-71
2023/09/25 02:29:53;;;;;;;3.00;2.80;;;17.20;99.90;;;;;;5016082;28;20623;-70
2023/09/25 02:32:19;;;;;;;2.50;2.40;;;17.20;99.90;;;;;;5010509;28;20240;-71
2023/09/25 02:34:45;;;;;;;2.60;2.50;;;17.30;99.90;;;;;;5014773;28;20182;-70
2023/09/25 02:37:11;;;;;;;2.80;2.60;;;17.10;99.60;;;;;;5014294;28;20205;-70
2023/09/25 02:39:37;;;;;;;3.10;2.90;;;17.20;99.90;;;;;;5015626;28;20429;-70
2023/09/25 02:42:02;;;;;;;3.20;2.77;;;17.20;99.30;;;;;;5014300;28;20274;-70
2023/09/25 02:44:28;;;;;;;2.50;2.40;;;17.20;99.50;;;;;;5015010;28;20421;-70
2023/09/25 02:46:54;;;;;;;3.23;3.00;;;17.20;99.90;;;;;;5015755;28;20170;-70
2023/09/25 02:49:20;;;;;;;2.70;2.60;;;17.30;99.90;;;;;;5013984;28;20195;-70
2023/09/25 02:51:46;;;;;;;2.70;2.60;;;17.20;99.90;;;;;;5014887;28;20426;-70
2023/09/25 02:54:11;;;;;;;2.83;2.73;;;17.20;99.90;;;;;;5013854;28;20229;-70
2023/09/25 02:56:37;;;;;;;3.13;2.93;;;17.20;99.90;;;;;;5015597;28;20175;-71
2023/09/25 02:59:03;;;;;;;3.03;2.73;;;17.20;99.90;;;;;;5013577;28;20738;-70
2023/09/25 03:01:29;;;;;;;2.67;2.57;;;17.30;99.90;;;;;;5014581;28;20209;-70
2023/09/25 03:03:54;;;;;;;3.00;2.90;;;17.30;99.90;;;;;;5015451;28;20178;-70
2023/09/25 03:06:20;;;;;;;2.70;2.60;;;17.30;99.90;;;;;;5013866;28;20183;-70
2023/09/25 03:08:46;;;;;;;3.10;2.57;;;17.30;99.90;;;;;;5014275;28;20182;-71
2023/09/25 03:11:11;;;;;;;2.60;2.50;;;17.30;99.90;;;;;;5013201;28;20181;-70
2023/09/25 03:13:37;;;;;;;2.80;2.70;;;17.20;99.90;;;;;;5013304;28;20234;-71
2023/09/25 03:16:15;;;;;;;3.00;2.80;;;17.20;99.90;;;;;;5013869;28;20186;-71
2023/09/25 03:18:41;;;;;;;2.90;2.80;;;17.20;99.90;;;;;;5014152;28;20198;-71
2023/09/25 03:21:14;;;;;;;3.10;3.00;;;17.20;99.90;;;;;;5014078;28;20516;-70
2023/09/25 03:23:41;;;;;;;3.03;2.83;;;17.20;99.90;;;;;;5014112;28;20776;-70
2023/09/25 03:26:14;;;;;;;3.57;3.20;;;17.20;99.90;;;;;;5013138;28;20426;-70
2023/09/25 03:28:40;;;;;;;3.10;2.90;;;17.20;99.90;;;;;;5014816;28;20426;-71
2023/09/25 03:31:06;;;;;;;2.73;2.63;;;17.10;99.90;;;;;;5013087;28;20430;-70
2023/09/25 03:33:32;;;;;;;3.20;3.00;;;17.10;99.90;;;;;;5013666;28;20552;-70
2023/09/25 03:35:57;;;;;;;3.03;2.73;;;17.10;99.90;;;;;;5014848;28;20484;-72
2023/09/25 03:38:23;;;;;;;3.00;2.87;;;17.00;99.90;;;;;;5013262;28;20240;-71
2023/09/25 03:40:49;;;;;;;2.77;2.57;;;17.00;99.90;;;;;;5013339;28;20179;-71
2023/09/25 03:43:15;;;;;;;3.10;2.90;;;16.90;99.80;;;;;;5014002;28;20222;-70
2023/09/25 03:45:41;;;;;;;3.20;3.00;;;16.70;99.90;;;;;;5013659;28;20450;-71
2023/09/25 03:48:06;;;;;;;2.80;2.70;;;16.80;99.90;;;;;;5012612;28;20214;-70
2023/09/25 03:50:32;;;;;;;4.87;4.67;;;16.90;99.90;;;;;;5014185;28;20175;-71
2023/09/25 03:53:00;;;;;;;1.97;1.87;;;16.90;99.90;;;;;;5012891;28;20608;-71
2023/09/25 03:55:26;;;;;;;1.93;1.83;;;17.00;99.90;;;;;;5012944;28;20297;-70
2023/09/25 03:57:52;;;;;;;5.47;5.17;;;17.10;99.90;;;;;;5013254;28;20532;-69
2023/09/25 04:00:18;;;;;;;1.97;1.87;;;17.20;99.90;;;;;;5013773;28;20413;-70
2023/09/25 04:02:43;;;;;;;1.83;1.73;;;17.10;99.50;;;;;;5013059;28;20182;-71
2023/09/25 04:05:10;;;;;;;5.30;5.10;;;17.20;99.90;;;;;;5012134;28;20210;-70
2023/09/25 04:07:36;;;;;;;2.13;2.03;;;17.10;99.60;;;;;;5014220;28;20178;-71
2023/09/25 04:10:02;;;;;;;2.10;2.00;;;17.10;99.30;;;;;;5013101;28;20421;-71
2023/09/25 04:12:29;;;;;;;3.40;3.20;;;17.10;99.50;;;;;;5010072;28;20682;-70
2023/09/25 04:14:55;;;;;;;1.97;1.87;;;17.00;99.40;;;;;;5013558;28;20524;-65
2023/09/25 04:17:21;;;;;;;1.77;1.67;;;17.10;99.90;;;;;;5012799;28;20537;-71
2023/09/25 04:19:48;;;;;;;4.03;3.83;;;17.10;99.90;;;;;;5013034;28;20450;-70
2023/09/25 04:22:14;;;;;;;2.97;2.87;;;17.20;99.90;;;;;;5012159;28;20471;-70
2023/09/25 04:24:40;;;;;;;2.10;2.00;;;17.20;99.90;;;;;;5013679;28;20881;-70
2023/09/25 04:27:06;;;;;;;3.40;3.20;;;17.30;99.90;;;;;;5009997;28;20441;-65
2023/09/25 04:29:31;;;;;;;3.60;3.30;;;17.30;99.90;;;;;;5010385;28;20185;-71
2023/09/25 04:31:58;;;;;;;6.33;4.73;;;17.30;99.90;;;;;;5013935;28;20171;-70
2023/09/25 04:34:23;;;;;;;5.20;4.90;;;17.30;99.90;;;;;;5011481;28;20524;-70
2023/09/25 04:36:49;;;;;;;8.03;6.80;;;17.20;99.50;;;;;;5012743;28;20429;-71
2023/09/25 04:39:16;;;;;;;2.60;2.40;;;17.20;99.90;;;;;;5012981;28;20294;-70
2023/09/25 04:41:46;;;;;;;5.10;4.90;;;17.30;99.70;;;;;;5012518;28;20178;-71
2023/09/25 04:44:12;;;;;;;2.70;2.60;;;17.30;99.90;;;;;;5012116;28;20430;-70
2023/09/25 04:46:38;;;;;;;3.43;3.23;;;17.30;99.90;;;;;;5011884;28;20830;-71
2023/09/25 04:49:07;;;;;;;2.60;2.50;;;17.30;99.90;;;;;;5013259;28;20186;-70
2023/09/25 04:51:34;;;;;;;3.00;2.90;;;17.20;99.50;;;;;;5012517;28;20535;-70
2023/09/25 04:54:00;;;;;;;5.00;4.60;;;17.20;99.40;;;;;;5012052;28;20422;-71
2023/09/25 04:56:29;;;;;;;3.17;2.87;;;17.20;99.50;;;;;;4993960;28;20464;-69
2023/09/25 04:58:55;;;;;;;3.03;2.83;;;17.20;99.80;;;;;;5013068;28;20445;-70
2023/09/25 05:01:21;;;;;;;2.80;2.70;;;17.20;99.30;;;;;;5009959;28;20430;-70
2023/09/25 05:03:47;;;;;;;3.07;2.97;;;17.20;99.90;;;;;;5011683;28;20509;-66
2023/09/25 05:06:13;;;;;;;6.00;5.50;;;17.20;99.90;;;;;;5011809;28;20190;-66
2023/09/25 05:08:39;;;;;;;3.83;3.57;;;17.10;99.90;;;;;;5012056;28;20430;-67
2023/09/25 05:11:05;;;;;;;3.27;3.07;;;17.10;99.90;;;;;;5011772;28;20662;-67
2023/09/25 05:13:32;;;;;;;5.70;5.20;;;17.10;99.90;;;;;;5011392;28;20528;-67
2023/09/25 05:15:58;;;;;;;4.87;4.63;;;17.10;99.90;;;;;;5012883;28;20913;-67
2023/09/25 05:18:24;;;;;;;11.63;8.67;;;17.10;99.90;;;;;;5011483;28;20484;-67
2023/09/25 05:20:49;;;;;;;6.03;5.73;;;17.10;99.90;;;;;;5011604;28;20425;-68
2023/09/25 05:23:18;;;;;;;5.90;5.40;;;17.00;99.90;;;;;;5011534;28;20619;-68
2023/09/25 05:25:44;;;;;;;3.00;2.70;;;17.00;99.90;;;;;;5012961;28;20178;-68
2023/09/25 05:28:10;;;;;;;6.27;5.87;;;17.00;99.90;;;;;;5011233;28;20434;-67
2023/09/25 05:30:36;;;;;;;5.13;3.73;;;17.00;99.90;;;;;;5012142;28;20513;-68
2023/09/25 05:33:01;;;;;;;2.80;2.60;;;16.90;99.90;;;;;;5009726;28;20270;-68
2023/09/25 05:35:27;;;;;;;3.90;3.60;;;16.80;99.90;;;;;;5012185;28;20181;-67
2023/09/25 05:37:53;;;;;;;4.70;4.40;;;16.80;99.90;;;;;;5011819;28;20221;-68
2023/09/25 05:40:20;;;;;;;3.77;3.57;;;16.80;99.90;;;;;;5011099;28;20544;-68
2023/09/25 05:42:47;;;;;;;3.27;3.10;;;16.80;99.90;;;;;;5012377;28;20414;-68
2023/09/25 05:45:14;;;;;;;3.77;3.57;;;16.80;99.90;;;;;;5012069;28;20270;-68
2023/09/25 05:47:40;;;;;;;4.37;4.17;;;16.80;99.90;;;;;;5015077;28;20480;-68
2023/09/25 05:50:06;;;;;;;3.60;3.30;;;16.80;99.90;;;;;;5017950;28;20422;-67
2023/09/25 05:52:39;;;;;;;3.27;3.10;;;16.80;99.90;;;;;;5014354;28;20179;-67
2023/09/25 05:55:06;;;;;;;3.57;3.27;;;16.80;99.90;;;;;;5015354;28;20476;-67
2023/09/25 05:57:32;;;;;;;2.57;2.40;;;16.70;99.90;;;;;;5015208;28;20458;-75
2023/09/25 06:00:03;;;;;;;4.70;4.50;;;16.80;99.90;;;;;;5014885;28;20933;-78
2023/09/25 06:02:33;;;;;;;3.10;3.00;;;17.10;99.90;;;;;;5014316;28;20453;-74
2023/09/25 06:04:59;;;;;;;5.37;4.87;;;17.40;99.90;;;;;;5016176;28;20422;-74
2023/09/25 06:07:25;;;;;;;4.83;4.63;;;17.70;99.90;;;;;;5014667;28;20425;-74
2023/09/25 06:09:50;;;;;;;4.80;3.30;;;17.90;99.90;;;;;;5015374;28;20410;-62
2023/09/25 06:12:16;;;;;;;4.50;4.20;;;18.30;99.90;;;;;;5015457;28;20272;-65
2023/09/25 06:14:42;;;;;;;3.80;3.60;;;18.50;99.90;;;;;;5015157;28;20314;-65
2023/09/25 06:17:09;;;;;;;4.10;3.90;;;18.60;99.90;;;;;;5016092;28;20194;-65
2023/09/25 06:19:36;;;;;;;4.77;4.30;;;18.60;99.90;;;;;;5013264;28;20905;-65
2023/09/25 06:22:02;;;;;;;5.30;4.90;;;18.20;99.90;;;;;;5015225;28;20768;-65
2023/09/25 06:24:28;;;;;;;4.20;4.00;;;18.10;99.90;;;;;;5013894;28;20500;-64
2023/09/25 06:26:53;;;;;;;3.47;3.00;;;17.70;99.90;;;;;;5015264;28;20457;-65
2023/09/25 06:29:21;;;;;;;4.00;3.80;;;17.40;99.90;;;;;;5014038;28;20207;-65
2023/09/25 06:31:47;;;;;;;3.93;3.63;;;17.30;99.90;;;;;;5013504;28;20297;-64
2023/09/25 06:34:13;;;;;;;4.30;3.90;;;17.40;99.90;;;;;;5014659;28;20850;-64
2023/09/25 06:36:39;;;;;;;3.90;3.70;;;17.60;99.90;;;;;;5015022;28;20434;-65
2023/09/25 06:39:09;;;;;;;3.60;3.40;;;17.70;99.90;;;;;;5014911;28;20461;-65
2023/09/25 06:41:39;;;;;;;3.87;3.57;;;17.80;99.90;;;;;;5014226;28;20546;-65
2023/09/25 06:44:05;;;;;;;3.30;3.10;;;17.90;99.90;;;;;;5015953;28;20775;-65
2023/09/25 06:46:34;;;;;;;8.63;7.77;;;18.00;99.90;;;;;;5022662;28;20424;-65
2023/09/25 06:49:01;;;;;;;4.83;4.53;;;18.20;99.90;;;;;;5026143;28;20521;-65
2023/09/25 06:51:29;;;;;;;4.17;3.97;;;18.00;99.90;;;;;;5014802;28;20484;-68
2023/09/25 06:53:55;;;;;;;4.70;4.40;;;18.00;99.90;;;;;;5014373;28;20429;-69
2023/09/25 06:56:20;;;;;;;3.60;3.10;;;18.20;99.90;;;;;;5011899;28;20789;-68
2023/09/25 06:58:46;;;;;;;11.67;10.57;;;18.30;99.90;;;;;;5015023;28;20453;-69
2023/09/25 07:01:12;;;;;;;6.33;5.73;;;18.40;99.90;;;;;;5027601;28;20174;-68
2023/09/25 07:03:38;;;;;;;5.20;4.90;;;18.60;99.90;;;;;;5028234;28;20689;-73
2023/09/25 07:06:03;;;;;;;4.60;4.40;;;18.70;99.90;;;;;;5013705;28;20191;-68
2023/09/25 07:08:30;;;;;;;5.00;3.50;;;18.80;99.90;;;;;;5013750;28;20195;-70
2023/09/25 07:10:58;;;;;;;3.73;3.43;;;19.00;99.70;;;;;;5014475;28;20510;-73
2023/09/25 07:13:24;;;;;;;3.60;3.30;;;19.10;99.40;;;;;;4992593;28;20505;-68
2023/09/25 07:15:50;;;;;;;3.57;3.37;;;19.00;98.10;;;;;;4994291;28;20514;-67
2023/09/25 07:18:19;;;;;;;3.90;3.70;;;19.00;97.40;;;;;;4992991;28;20477;-60
2023/09/25 07:20:53;;;;;;;3.93;3.70;;;18.90;96.50;;;;;;4993153;28;20923;-65
2023/09/25 07:23:18;;;;;;;2.87;2.77;;;18.80;96.60;;;;;;4978347;28;20411;-67
2023/09/25 07:25:44;;;;;;;4.30;4.00;;;18.70;97.20;;;;;;4994235;28;20431;-67
2023/09/25 07:28:11;;;;;;;6.20;5.70;;;18.60;97.60;;;;;;4995098;28;20662;-68
2023/09/25 07:30:47;;;;;;;3.77;3.57;;;18.60;98.60;;;;;;4993309;28;20187;-68
2023/09/25 07:33:13;;;;;;;3.03;2.83;;;18.50;96.50;;;;;;4993842;28;20422;-68
2023/09/25 07:35:38;;;;;;;3.03;2.93;;;18.20;95.30;;;;;;4993771;28;20422;-68
2023/09/25 07:38:04;;;;;;;3.20;3.00;;;18.10;95.60;;;;;;4994001;28;20222;-67
2023/09/25 07:40:30;;;;;;;5.17;3.93;;;18.00;95.80;;;;;;4991791;28;20233;-67
2023/09/25 07:42:56;;;;;;;4.23;3.93;;;18.10;96.50;;;;;;4993044;28;20527;-68
2023/09/25 07:45:25;;;;;;;3.10;2.90;;;18.20;98.10;;;;;;4992082;28;20606;-71
2023/09/25 07:47:52;;;;;;;3.03;2.83;;;18.20;98.20;;;;;;4992583;28;20429;-72
2023/09/25 07:50:19;;;;;;;3.93;3.13;;;18.20;96.50;;;;;;4992556;28;20788;-61
2023/09/25 07:52:45;;;;;;;3.73;3.40;;;18.00;94.70;;;;;;4992687;28;20452;-72
2023/09/25 07:55:11;;;;;;;3.13;2.93;;;18.00;95.30;;;;;;4992956;28;20431;-71
2023/09/25 07:57:43;;;;;;;3.60;2.70;;;18.10;95.30;;;;;;4993662;28;20951;-72
2023/09/25 08:02:47;;;;;;;3.57;3.17;;;17.90;94.30;;;;;;4992633;28;20465;-70
2023/09/25 08:05:14;;;;;;;2.83;2.73;;;17.90;94.20;;;;;;4993859;28;20434;-70
2023/09/25 08:07:39;;;;;;;3.43;2.80;;;17.90;94.70;;;;;;4993362;28;20481;-71
2023/09/25 08:10:06;;;;;;;5.10;2.87;;;18.10;95.50;;;;;;4993525;28;20439;-70
2023/09/25 08:12:32;;;;;;;2.70;2.50;;;18.00;94.50;;;;;;4999682;28;20583;-70
2023/09/25 08:14:58;;;;;;;9.93;8.90;;;18.10;94.10;;;;;;4994257;28;20429;-71
2023/09/25 08:17:24;;;;;;;3.20;3.00;;;18.20;96.00;;;;;;5011705;28;20269;-67
2023/09/25 08:19:53;;;;;;;3.37;3.17;;;18.30;96.00;;;;;;5012547;28;20187;-74
2023/09/25 08:22:20;;;;;;;3.77;3.50;;;18.40;95.30;;;;;;5012614;28;20546;-69
2023/09/25 08:24:45;;;;;;;4.30;3.90;;;18.40;95.00;;;;;;5023131;28;20448;-63
2023/09/25 08:27:11;;;;;;;2.70;2.50;;;18.50;94.40;;;;;;5013172;28;20418;-68
2023/09/25 08:29:37;;;;;;;2.90;2.70;;;18.40;93.60;;;;;;5011981;28;20602;-68
2023/09/25 08:32:02;;;;;;;3.90;3.70;;;18.50;95.00;;;;;;5012241;28;20175;-68
2023/09/25 08:34:28;;;;;;;3.50;3.20;;;18.50;93.80;;;;;;5003603;28;20685;-72
2023/09/25 08:36:54;;;;;;;3.17;2.97;;;18.60;94.00;;;;;;5002166;28;20187;-69
2023/09/25 08:39:20;;;;;;;3.07;2.83;;;18.50;92.30;;;;;;5012140;28;20198;-68
2023/09/25 08:41:46;;;;;;;3.63;3.43;;;18.50;93.00;;;;;;5012443;28;20389;-67
2023/09/25 08:44:15;;;;;;;3.13;2.93;;;18.60;92.90;;;;;;5011765;28;20236;-68
2023/09/25 08:46:42;;;;;;;3.03;2.93;;;18.60;93.00;;;;;;5012298;28;20449;-69
2023/09/25 08:49:09;;;;;;;4.67;4.37;;;18.70;93.30;;;;;;5012522;28;20469;-73
2023/09/25 08:51:37;;;;;;;3.97;3.77;;;18.90;93.70;;;;;;5011659;28;20472;-68
2023/09/25 08:54:03;;;;;;;3.17;2.97;;;18.90;92.50;;;;;;5012127;28;20521;-70
2023/09/25 08:56:31;;;;;;;4.30;4.10;;;18.90;92.30;;;;;;5012396;28;20479;-68
2023/09/25 08:59:00;;;;;;;2.80;2.70;;;19.00;92.70;;;;;;5012227;28;20468;-70
2023/09/25 09:01:28;;;;;;;2.50;2.40;;;19.20;92.50;;;;;;5011464;28;20433;-72
2023/09/25 09:03:53;;;;;;;4.97;3.13;;;19.20;92.00;;;;;;5008608;28;20447;-67
2023/09/25 09:06:19;;;;;;;3.40;3.20;;;19.30;92.30;;;;;;5011665;28;20517;-67
2023/09/25 09:08:49;;;;;;;2.40;2.20;;;19.50;92.80;;;;;;5012562;28;20541;-67
2023/09/25 09:11:16;;;;;;;2.60;2.40;;;19.60;91.10;;;;;;5011571;28;20552;-66
2023/09/25 09:13:48;;;;;;;3.20;2.87;;;19.80;91.10;;;;;;5010687;28;20981;-82
2023/09/25 09:16:16;;;;;;;32.90;26.43;;;20.00;90.10;;;;;;5011298;28;20500;-85
2023/09/25 09:18:42;;;;;;;2.90;2.70;;;20.00;86.60;;;;;;5010847;28;20512;-83
2023/09/25 09:21:26;;;;;;;3.47;3.27;;;20.10;86.20;;;;;;5011754;28;20832;-86
2023/09/25 09:23:56;;;;;;;2.87;2.70;;;20.30;88.90;;;;;;5006426;28;20255;-86
2023/09/25 09:26:25;;;;;;;4.53;4.10;;;20.40;87.90;;;;;;5012162;28;20521;-86
2023/09/25 09:28:53;;;;;;;2.40;2.30;;;20.60;86.80;;;;;;5011046;28;20584;-76
2023/09/25 09:31:20;;;;;;;3.73;3.07;;;20.80;88.00;;;;;;5011373;28;20422;-85
2023/09/25 09:33:46;;;;;;;3.13;2.93;;;21.10;87.90;;;;;;5008889;28;20430;-87
2023/09/25 09:36:14;;;;;;;3.13;3.00;;;21.30;81.90;;;;;;5011787;28;20395;-86
2023/09/25 09:38:41;;;;;;;3.10;2.90;;;21.40;83.50;;;;;;5012140;28;20456;-85
2023/09/25 09:41:11;;;;;;;4.77;4.47;;;21.50;82.60;;;;;;5011565;28;20434;-80
2023/09/25 09:43:37;;;;;;;61.67;41.73;;;21.60;82.00;;;;;;5011940;28;20452;-82
2023/09/25 09:46:03;;;;;;;9.23;8.33;;;21.80;80.30;;;;;;5013218;28;20444;-77
2023/09/25 09:48:30;;;;;;;2.50;2.40;;;22.00;80.80;;;;;;5010422;28;20466;-78
2023/09/25 09:51:01;;;;;;;3.10;3.00;;;22.00;76.70;;;;;;4996095;28;20430;-78
2023/09/25 09:53:28;;;;;;;2.20;2.10;;;22.00;78.40;;;;;;4993813;28;20434;-80
2023/09/25 09:55:56;;;;;;;1.83;1.70;;;22.10;77.90;;;;;;5012352;28;20516;-79
2023/09/25 09:58:25;;;;;;;3.13;2.92;;;22.40;75.20;;;;;;5008641;28;20434;-78
2023/09/25 10:00:54;;;;;;;2.80;2.60;;;22.50;79.30;;;;;;5012509;28;20198;-73
2023/09/25 10:03:20;;;;;;;2.90;2.80;;;22.90;80.90;;;;;;5008475;28;20517;-73
2023/09/25 10:05:50;;;;;;;3.27;3.17;;;23.20;78.50;;;;;;5009003;28;20571;-73
2023/09/25 10:08:16;;;;;;;2.50;2.40;;;23.50;74.40;;;;;;5010419;28;20521;-73
2023/09/25 10:10:46;;;;;;;3.27;3.00;;;23.60;73.40;;;;;;5005523;28;20434;-74
2023/09/25 10:13:25;;;;;;;2.60;2.40;;;23.60;70.70;;;;;;5010818;28;20470;-73
2023/09/25 10:15:53;;;;;;;3.17;3.07;;;23.30;69.00;;;;;;5004932;28;20457;-70
2023/09/25 10:18:20;;;;;;;3.10;3.00;;;23.20;71.50;;;;;;5010611;28;20453;-72
2023/09/25 10:20:46;;;;;;;2.90;2.80;;;23.00;71.80;;;;;;5007828;28;20432;-73
2023/09/25 10:23:23;;;;;;;2.87;2.67;;;23.30;71.50;;;;;;5009523;28;20426;-74
2023/09/25 10:25:52;;;;;;;3.13;3.03;;;23.50;72.00;;;;;;5008238;28;20483;-72
2023/09/25 10:28:29;;;;;;;2.60;2.50;;;23.50;70.20;;;;;;5009766;28;20429;-74
2023/09/25 10:31:04;;;;;;;2.80;2.70;;;23.40;67.20;;;;;;5010354;28;20966;-75
2023/09/25 10:33:33;;;;;;;3.10;2.90;;;23.50;69.80;;;;;;5014277;28;20845;-65
2023/09/25 10:36:04;;;;;;;3.50;3.20;;;23.70;67.70;;;;;;5014790;28;20441;-75
2023/09/25 10:38:33;;;;;;;2.77;2.67;;;23.90;69.00;;;;;;5014218;28;20457;-75
2023/09/25 10:41:07;;;;;;;3.30;3.00;;;24.20;69.10;;;;;;5015661;28;20426;-75
2023/09/25 10:43:35;;;;;;;2.77;2.57;;;24.30;68.30;;;;;;5014244;28;20433;-75
2023/09/25 10:46:03;;;;;;;3.00;2.90;;;24.60;68.00;;;;;;5014796;28;20513;-75
2023/09/25 10:48:31;;;;;;;13.30;12.10;;;24.70;67.70;;;;;;5012476;28;20452;-70
2023/09/25 10:50:57;;;;;;;4.27;3.70;;;25.00;66.80;;;;;;4996528;28;20977;-75
2023/09/25 10:53:23;;;;;;;3.27;3.07;;;25.40;66.10;;;;;;5010412;28;20517;-75
2023/09/25 10:55:48;;;;;;;4.50;4.40;;;25.60;60.70;;;;;;5013950;28;20198;-74
2023/09/25 10:58:15;;;;;;;2.27;2.00;;;25.60;60.30;;;;;;5015402;28;20203;-75
2023/09/25 11:00:42;;;;;;;4.80;4.70;;;25.80;61.20;;;;;;5013968;28;20179;-75
2023/09/25 11:03:09;;;;;;;3.80;3.60;;;26.00;63.30;;;;;;5014585;28;20499;-75
2023/09/25 11:05:39;;;;;;;3.77;3.60;;;26.20;62.10;;;;;;5012360;28;20430;-73
2023/09/25 11:08:10;;;;;;;2.43;2.33;;;25.90;58.40;;;;;;5014251;28;20436;-76
2023/09/25 11:10:37;;;;;;;2.70;2.50;;;25.30;58.70;;;;;;5013928;28;20434;-75
2023/09/25 11:13:04;;;;;;;4.87;4.67;;;25.20;59.90;;;;;;5013704;28;20464;-75
2023/09/25 11:15:40;;;;;;;2.67;2.57;;;25.20;61.00;;;;;;5014439;28;20910;-69
2023/09/25 11:18:11;;;;;;;2.67;2.57;;;25.40;61.30;;;;;;5014298;28;20457;-75
2023/09/25 11:20:38;;;;;;;2.70;2.50;;;25.50;59.10;;;;;;5013465;28;20444;-75
2023/09/25 11:23:09;;;;;;;2.57;2.47;;;25.70;58.20;;;;;;5014464;28;20426;-74
2023/09/25 11:25:41;;;;;;;3.50;3.30;;;25.40;57.80;;;;;;5014305;28;20961;-74
2023/09/25 11:28:07;;;;;;;3.43;3.23;;;25.40;59.30;;;;;;5013913;28;20788;-74
2023/09/25 11:30:34;;;;;;;4.10;3.90;;;25.60;59.00;;;;;;5012954;28;20433;-75
2023/09/25 11:33:05;;;;;;;3.30;3.20;;;25.70;60.00;;;;;;5013773;28;20807;-74
2023/09/25 11:35:34;;;;;;;4.80;4.40;;;25.30;57.70;;;;;;5014323;28;20417;-63
2023/09/25 11:38:02;;;;;;;7.00;6.40;;;25.10;61.70;;;;;;5012047;28;20454;-75
2023/09/25 11:40:29;;;;;;;3.03;2.83;;;25.30;59.70;;;;;;5012021;28;20441;-75
2023/09/25 11:42:56;;;;;;;3.30;3.20;;;25.40;58.30;;;;;;5014256;28;20773;-74
2023/09/25 11:45:23;;;;;;;3.10;3.00;;;25.50;58.70;;;;;;5013142;28;20430;-75
2023/09/25 11:47:49;;;;;;;3.00;2.90;;;25.40;56.40;;;;;;5012588;28;20480;-75
2023/09/25 11:50:16;;;;;;;3.13;3.03;;;25.50;58.10;;;;;;5013556;28;20409;-74
2023/09/25 11:52:46;;;;;;;3.03;2.93;;;25.60;58.20;;;;;;5013944;28;20963;-74
2023/09/25 11:55:14;;;;;;;4.30;4.10;;;25.50;58.00;;;;;;5013233;28;20913;-76
2023/09/25 11:57:44;;;;;;;2.63;2.53;;;25.40;57.00;;;;;;5013793;28;20453;-74
2023/09/25 12:00:12;;;;;;;2.80;2.60;;;25.40;56.00;;;;;;5014009;28;20430;-76
2023/09/25 12:02:40;;;;;;;4.30;4.10;;;25.20;57.90;;;;;;5011497;28;20456;-75
2023/09/25 12:05:06;;;;;;;2.90;2.80;;;25.20;58.30;;;;;;5011314;28;21005;-74
2023/09/25 12:07:36;;;;;;;3.70;2.70;;;25.10;57.20;;;;;;5014163;28;20438;-75
2023/09/25 12:10:06;;;;;;;3.10;2.73;;;25.10;56.40;;;;;;5011206;28;20769;-75
2023/09/25 12:12:35;;;;;;;3.17;3.07;;;24.90;55.90;;;;;;5012876;28;20474;-75
2023/09/25 12:15:03;;;;;;;2.80;2.70;;;24.80;56.20;;;;;;5012650;28;21013;-75
2023/09/25 12:17:33;;;;;;;3.83;3.73;;;24.30;56.90;;;;;;5012374;28;20438;-75
2023/09/25 12:20:06;;;;;;;2.83;2.63;;;24.10;56.60;;;;;;5011246;28;20936;-76
2023/09/25 12:22:33;;;;;;;3.30;3.10;;;24.10;58.00;;;;;;5014026;28;20398;-74
2023/09/25 12:24:59;;;;;;;1.90;1.80;;;24.10;58.30;;;;;;5012748;28;20430;-75
2023/09/25 12:27:24;;;;;;;2.87;2.73;;;24.00;59.80;;;;;;5010740;28;20433;-75
2023/09/25 12:29:50;;;;;;;2.70;2.50;;;23.80;58.80;;;;;;5013192;28;20619;-76
2023/09/25 12:32:16;;;;;;;3.90;3.70;;;23.90;60.10;;;;;;5012867;28;20233;-75
2023/09/25 12:34:42;;;;;;;3.27;3.17;;;23.90;60.20;;;;;;5011675;28;20551;-75
2023/09/25 12:37:07;;;;;;;4.20;4.00;;;23.80;59.80;;;;;;5013705;28;20167;-75
2023/09/25 12:39:34;;;;;;;6.30;6.10;;;23.70;58.60;;;;;;5012309;28;20202;-75
2023/09/25 12:42:02;;;;;;;3.13;2.93;;;23.70;60.80;;;;;;5012098;28;20256;-76
2023/09/25 12:44:27;;;;;;;2.83;2.73;;;23.60;60.80;;;;;;5013039;28;20422;-71
2023/09/25 12:46:53;;;;;;;3.20;3.00;;;23.50;61.50;;;;;;5009257;28;20436;-74
2023/09/25 12:49:19;;;;;;;3.97;3.77;;;23.50;63.00;;;;;;5012615;28;20644;-75